Terminal Aerodrome Forecast
Issued by NWS

Home | Current Version | Previous Version | Text Only | Print | Product List | Glossary On
Versions: 1 2 3 4 5 6 7 8 9 10 11 12 13 14 15 16 17 18 19 20 21 22 23 24 25 26 27 28 29 30 31 32 33 34 35
505
FTUS43 KSGF 200557 CCA
TAFJLN
TAF COR
KJLN 200557Z 2006/2106 00000KT P6SM OVC015
     FM200900 14004KT 2SM BR OVC005
      TEMPO 2009/2012 3/4SM BR
     FM201600 16009KT 3SM BR BKN008
     FM201800 18012KT P6SM SCT030
     FM210000 19009KT P6SM SCT250=

USA.gov is the U.S. government's official web portal to all federal, state and local government web resources and services.